createdAt,value
2019-02-07T00:00:13.787Z,1013.19
2019-02-07T00:01:13.783Z,1013.23
2019-02-07T00:02:13.778Z,1013.23
2019-02-07T00:03:13.762Z,1013.19
2019-02-07T00:04:13.760Z,1013.20
2019-02-07T00:05:13.734Z,1013.15
2019-02-07T00:06:13.725Z,1013.19
2019-02-07T00:07:13.716Z,1013.18
2019-02-07T00:08:13.708Z,1013.18
2019-02-07T00:09:13.733Z,1013.25
2019-02-07T00:10:13.684Z,1013.25
2019-02-07T00:11:13.675Z,1013.27
2019-02-07T00:12:13.665Z,1013.27
2019-02-07T00:13:13.655Z,1013.23
2019-02-07T00:14:13.646Z,1013.14
2019-02-07T00:15:13.642Z,1013.13
2019-02-07T00:16:13.627Z,1013.05
2019-02-07T00:17:13.613Z,1013.10
2019-02-07T00:18:13.598Z,1013.03
2019-02-07T00:19:13.592Z,1013.03
2019-02-07T00:20:13.615Z,1013.02
2019-02-07T00:21:13.579Z,1013.01
2019-02-07T00:22:13.561Z,1012.96
2019-02-07T00:23:13.551Z,1012.95
2019-02-07T00:24:13.535Z,1012.95
2019-02-07T00:25:13.536Z,1012.98
2019-02-07T00:26:13.529Z,1012.93
2019-02-07T00:27:13.504Z,1012.90
2019-02-07T00:28:13.497Z,1012.84
2019-02-07T00:29:13.501Z,1012.80
2019-02-07T00:30:13.472Z,1012.82
2019-02-07T00:31:13.480Z,1012.82
2019-02-07T00:32:13.450Z,1012.81
2019-02-07T00:33:13.440Z,1012.86
2019-02-07T00:34:13.439Z,1012.81
2019-02-07T00:35:13.421Z,1012.82
2019-02-07T00:36:13.452Z,1012.86
2019-02-07T00:37:13.403Z,1012.84
2019-02-07T00:38:13.388Z,1012.82
2019-02-07T00:39:13.382Z,1012.79
2019-02-07T00:40:13.372Z,1012.79
2019-02-07T00:41:13.362Z,1012.75
2019-02-07T00:42:13.359Z,1012.71
2019-02-07T00:43:13.336Z,1012.79
2019-02-07T00:44:13.331Z,1012.74
2019-02-07T00:45:13.314Z,1012.74
2019-02-07T00:46:13.315Z,1012.73
2019-02-07T00:47:13.315Z,1012.74
2019-02-07T00:48:13.292Z,1012.69
2019-02-07T00:49:13.273Z,1012.70
2019-02-07T00:50:13.268Z,1012.66
2019-02-07T00:51:13.258Z,1012.71
2019-02-07T00:52:13.244Z,1012.72
2019-02-07T00:53:13.245Z,1012.67
2019-02-07T00:54:13.229Z,1012.70
2019-02-07T00:55:13.218Z,1012.68
2019-02-07T00:56:13.207Z,1012.68
2019-02-07T00:57:13.196Z,1012.70
2019-02-07T00:58:13.183Z,1012.67
2019-02-07T00:59:13.186Z,1012.69
2019-02-07T01:00:13.163Z,1012.61
2019-02-07T01:01:13.155Z,1012.66
2019-02-07T01:02:13.145Z,1012.58
2019-02-07T01:03:13.160Z,1012.59
2019-02-07T01:04:13.120Z,1012.57
2019-02-07T01:05:13.114Z,1012.52
2019-02-07T01:06:13.103Z,1012.56
2019-02-07T01:07:13.093Z,1012.60
2019-02-07T01:08:13.083Z,1012.59
2019-02-07T01:09:13.102Z,1012.59
2019-02-07T01:10:13.064Z,1012.58
2019-02-07T01:11:13.051Z,1012.59
2019-02-07T01:12:13.037Z,1012.59
2019-02-07T01:13:13.031Z,1012.60
2019-02-07T01:14:13.020Z,1012.57
2019-02-07T01:15:13.050Z,1012.55
2019-02-07T01:16:13.000Z,1012.54
2019-02-07T01:17:12.985Z,1012.54
2019-02-07T01:18:12.974Z,1012.51
2019-02-07T01:19:12.964Z,1012.47
2019-02-07T01:20:12.960Z,1012.43
2019-02-07T01:21:12.961Z,1012.44
2019-02-07T01:22:12.933Z,1012.42
2019-02-07T01:23:12.929Z,1012.36
2019-02-07T01:24:12.916Z,1012.33
2019-02-07T01:25:12.902Z,1012.30
2019-02-07T01:26:12.910Z,1012.27
2019-02-07T01:27:12.880Z,1012.22
2019-02-07T01:28:12.875Z,1012.18
2019-02-07T01:29:12.865Z,1012.16
2019-02-07T01:30:12.849Z,1012.13
2019-02-07T01:31:12.855Z,1012.06
2019-02-07T01:32:12.833Z,1012.09
2019-02-07T01:33:12.820Z,1012.08
2019-02-07T01:34:12.814Z,1012.09
2019-02-07T01:35:12.807Z,1012.07
2019-02-07T01:36:12.823Z,1012.15
2019-02-07T01:37:12.782Z,1012.08
2019-02-07T01:38:12.772Z,1012.07
2019-02-07T01:39:12.761Z,1012.10
2019-02-07T01:40:12.752Z,1012.08
2019-02-07T01:41:12.737Z,1012.05
2019-02-07T01:42:12.733Z,1011.99
2019-02-07T01:43:12.714Z,1012.02
2019-02-07T01:44:12.704Z,1011.98
2019-02-07T01:45:13.425Z,1012.04
2019-02-07T01:46:12.681Z,1012.03
2019-02-07T01:47:12.703Z,1012.06
2019-02-07T01:48:12.666Z,1012.10
2019-02-07T01:49:12.655Z,1012.03
2019-02-07T01:50:12.641Z,1011.99
2019-02-07T01:51:12.631Z,1011.99
2019-02-07T01:52:12.626Z,1011.97
2019-02-07T01:53:12.619Z,1011.88
2019-02-07T01:54:12.598Z,1011.89
2019-02-07T01:55:12.593Z,1011.85
2019-02-07T01:56:12.577Z,1011.86
2019-02-07T01:57:12.576Z,1011.84
2019-02-07T01:58:12.566Z,1011.84
2019-02-07T01:59:12.546Z,1011.82
2019-02-07T02:00:12.535Z,1011.85
2019-02-07T02:01:12.530Z,1011.84
2019-02-07T02:02:12.525Z,1011.88
2019-02-07T02:03:12.518Z,1011.86
2019-02-07T02:04:12.499Z,1011.86
2019-02-07T02:05:12.483Z,1011.81
2019-02-07T02:06:12.472Z,1011.83
2019-02-07T02:07:12.467Z,1011.83
2019-02-07T02:08:12.455Z,1011.84
2019-02-07T02:09:12.458Z,1011.82
2019-02-07T02:10:12.428Z,1011.78
2019-02-07T02:11:12.420Z,1011.76
2019-02-07T02:12:12.413Z,1011.70
2019-02-07T02:13:12.399Z,1011.71
2019-02-07T02:14:12.403Z,1011.65
2019-02-07T02:15:12.378Z,1011.68
2019-02-07T02:16:12.366Z,1011.62
2019-02-07T02:17:12.361Z,1011.65
2019-02-07T02:18:12.350Z,1011.60
2019-02-07T02:19:12.346Z,1011.58
2019-02-07T02:20:12.331Z,1011.57
2019-02-07T02:21:12.324Z,1011.56
2019-02-07T02:22:12.307Z,1011.53
2019-02-07T02:23:12.298Z,1011.53
2019-02-07T02:24:12.283Z,1011.49
2019-02-07T02:25:12.272Z,1011.50
2019-02-07T02:26:12.275Z,1011.48
2019-02-07T02:27:12.253Z,1011.55
2019-02-07T02:28:12.246Z,1011.52
2019-02-07T02:29:12.230Z,1011.53
2019-02-07T02:30:12.225Z,1011.52
2019-02-07T02:31:12.222Z,1011.43
2019-02-07T02:32:12.202Z,1011.45
2019-02-07T02:33:12.188Z,1011.40
2019-02-07T02:34:12.198Z,1011.47
2019-02-07T02:35:12.166Z,1011.42
2019-02-07T02:36:12.168Z,1011.31
2019-02-07T02:37:12.159Z,1011.31
2019-02-07T02:38:12.144Z,1011.27
2019-02-07T02:39:12.136Z,1011.29
2019-02-07T02:40:12.120Z,1011.31
2019-02-07T02:41:12.108Z,1011.31
2019-02-07T02:42:12.104Z,1011.34
2019-02-07T02:43:12.081Z,1011.31
2019-02-07T02:44:12.072Z,1011.26
2019-02-07T02:45:12.064Z,1011.25
2019-02-07T02:46:12.053Z,1011.24
2019-02-07T02:47:12.084Z,1011.23
2019-02-07T02:48:12.038Z,1011.23
2019-02-07T02:49:12.025Z,1011.20
2019-02-07T02:50:12.010Z,1011.22
2019-02-07T02:51:12.004Z,1011.18
2019-02-07T02:52:11.995Z,1011.14
2019-02-07T02:53:11.991Z,1011.06
2019-02-07T02:54:11.967Z,1011.06
2019-02-07T02:55:11.964Z,1011.05
2019-02-07T02:56:11.958Z,1011.02
2019-02-07T02:57:11.937Z,1010.98
2019-02-07T02:58:11.938Z,1010.94
2019-02-07T02:59:11.920Z,1010.88
2019-02-07T03:00:11.913Z,1010.84
2019-02-07T03:01:11.895Z,1010.83
2019-02-07T03:02:11.888Z,1010.88
2019-02-07T03:03:11.887Z,1010.90
2019-02-07T03:04:11.862Z,1010.92
2019-02-07T03:05:11.853Z,1010.99
2019-02-07T03:06:11.858Z,1010.90
2019-02-07T03:07:11.840Z,1010.94
2019-02-07T03:08:11.827Z,1010.92
2019-02-07T03:09:11.842Z,1010.91
2019-02-07T03:10:11.799Z,1010.85
2019-02-07T03:11:11.789Z,1010.81
2019-02-07T03:12:11.784Z,1010.86
2019-02-07T03:13:11.773Z,1010.83
2019-02-07T03:14:11.761Z,1010.83
2019-02-07T03:15:11.766Z,1010.88
2019-02-07T03:16:11.740Z,1010.92
2019-02-07T03:17:11.735Z,1010.90
2019-02-07T03:18:11.721Z,1010.96
2019-02-07T03:19:11.709Z,1010.93
2019-02-07T03:20:11.707Z,1010.93
2019-02-07T03:21:11.712Z,1010.90
2019-02-07T03:22:11.693Z,1010.92
2019-02-07T03:23:11.668Z,1010.90
2019-02-07T03:24:11.653Z,1010.85
2019-02-07T03:25:11.651Z,1010.88
2019-02-07T03:26:11.763Z,1010.84
2019-02-07T03:27:11.621Z,1010.80
2019-02-07T03:28:11.622Z,1010.82
2019-02-07T03:29:11.606Z,1010.77
2019-02-07T03:30:11.607Z,1010.78
2019-02-07T03:31:11.580Z,1010.73
2019-02-07T03:32:11.576Z,1010.70
2019-02-07T03:33:11.575Z,1010.68
2019-02-07T03:34:11.551Z,1010.61
2019-02-07T03:35:11.606Z,1010.61
2019-02-07T03:36:11.535Z,1010.61
2019-02-07T03:37:11.518Z,1010.56
2019-02-07T03:38:11.522Z,1010.50
2019-02-07T03:39:11.503Z,1010.52
2019-02-07T03:40:11.491Z,1010.53
2019-02-07T03:41:11.476Z,1010.53
2019-02-07T03:42:11.472Z,1010.44
2019-02-07T03:43:11.467Z,1010.46
2019-02-07T03:44:11.449Z,1010.48
2019-02-07T03:45:11.433Z,1010.49
2019-02-07T03:46:11.430Z,1010.51
2019-02-07T03:47:11.444Z,1010.54
2019-02-07T03:48:11.407Z,1010.54
2019-02-07T03:49:11.404Z,1010.50
2019-02-07T03:50:11.388Z,1010.48
2019-02-07T03:51:11.371Z,1010.43
2019-02-07T03:52:11.363Z,1010.39
2019-02-07T03:53:11.357Z,1010.40
2019-02-07T03:54:11.353Z,1010.37
2019-02-07T03:55:11.343Z,1010.36
2019-02-07T03:56:11.327Z,1010.35
2019-02-07T03:57:11.311Z,1010.39
2019-02-07T03:58:11.300Z,1010.35
2019-02-07T03:59:11.337Z,1010.37
2019-02-07T04:00:11.294Z,1010.32
2019-02-07T04:01:11.277Z,1010.35
2019-02-07T04:02:11.259Z,1010.33
2019-02-07T04:03:11.254Z,1010.28
2019-02-07T04:04:11.242Z,1010.30
2019-02-07T04:05:11.250Z,1010.27
2019-02-07T04:06:11.225Z,1010.28
2019-02-07T04:07:11.212Z,1010.31
2019-02-07T04:08:11.198Z,1010.31
2019-02-07T04:09:11.193Z,1010.30
2019-02-07T04:10:11.186Z,1010.33
2019-02-07T04:11:11.165Z,1010.31
2019-02-07T04:12:11.159Z,1010.35
2019-02-07T04:13:11.151Z,1010.30
2019-02-07T04:14:11.135Z,1010.28
2019-02-07T04:15:11.167Z,1010.25
2019-02-07T04:16:15.166Z,1010.26
2019-02-07T04:17:11.104Z,1010.24
2019-02-07T04:18:11.102Z,1010.22
2019-02-07T04:19:11.089Z,1010.22
2019-02-07T04:20:11.077Z,1010.20
2019-02-07T04:21:11.124Z,1010.21
2019-02-07T04:22:11.056Z,1010.23
2019-02-07T04:23:11.057Z,1010.22
2019-02-07T04:24:11.047Z,1010.22
2019-02-07T04:25:11.029Z,1010.21
2019-02-07T04:26:11.020Z,1010.18
2019-02-07T04:27:11.021Z,1010.14
2019-02-07T04:28:11.005Z,1010.12
2019-02-07T04:29:10.992Z,1010.13
2019-02-07T04:30:10.970Z,1010.06
2019-02-07T04:31:10.965Z,1010.04
2019-02-07T04:32:10.957Z,1010.06
2019-02-07T04:33:10.945Z,1010.07
2019-02-07T04:34:10.937Z,1010.01
2019-02-07T04:35:10.933Z,1009.96
2019-02-07T04:36:10.915Z,1009.95
2019-02-07T04:37:10.911Z,1009.97
2019-02-07T04:38:10.898Z,1009.95
2019-02-07T04:39:10.879Z,1009.93
2019-02-07T04:40:12.270Z,1009.91
2019-02-07T04:41:10.861Z,1009.87
2019-02-07T04:42:10.846Z,1009.86
2019-02-07T04:43:10.854Z,1009.82
2019-02-07T04:44:10.826Z,1009.82
2019-02-07T04:45:10.817Z,1009.82
2019-02-07T04:46:10.807Z,1009.80
2019-02-07T04:47:10.797Z,1009.82
2019-02-07T04:48:10.800Z,1009.83
2019-02-07T04:49:10.774Z,1009.85
2019-02-07T04:50:10.766Z,1009.80
2019-02-07T04:51:10.754Z,1009.78
2019-02-07T04:52:10.744Z,1009.75
2019-02-07T04:53:10.733Z,1009.71
2019-02-07T04:54:10.738Z,1009.70
2019-02-07T04:55:10.731Z,1009.74
2019-02-07T04:56:10.708Z,1009.74
2019-02-07T04:57:10.697Z,1009.74
2019-02-07T04:58:10.691Z,1009.73
2019-02-07T04:59:10.685Z,1009.73
2019-02-07T05:00:10.666Z,1009.72
2019-02-07T05:01:10.657Z,1009.75
2019-02-07T05:02:10.682Z,1009.73
2019-02-07T05:03:10.630Z,1009.71
2019-02-07T05:04:10.631Z,1009.64
2019-02-07T05:05:10.618Z,1009.59
2019-02-07T05:06:10.600Z,1009.55
2019-02-07T05:07:10.589Z,1009.46
2019-02-07T05:08:10.586Z,1009.49
2019-02-07T05:09:10.567Z,1009.49
2019-02-07T05:10:10.578Z,1009.53
2019-02-07T05:11:10.556Z,1009.51
2019-02-07T05:12:10.537Z,1009.53
2019-02-07T05:13:10.528Z,1009.55
2019-02-07T05:14:10.524Z,1009.52
2019-02-07T05:15:10.557Z,1009.52
2019-02-07T05:16:10.497Z,1009.51
2019-02-07T05:17:10.487Z,1009.51
2019-02-07T05:18:10.474Z,1009.49
2019-02-07T05:19:10.468Z,1009.54
2019-02-07T05:20:10.456Z,1009.51
2019-02-07T05:21:10.453Z,1009.48
2019-02-07T05:22:10.439Z,1009.53
2019-02-07T05:23:10.424Z,1009.48
2019-02-07T05:24:10.417Z,1009.46
2019-02-07T05:25:10.406Z,1009.43
2019-02-07T05:26:10.411Z,1009.36
2019-02-07T05:27:10.389Z,1009.36
2019-02-07T05:28:10.372Z,1009.32
2019-02-07T05:29:10.368Z,1009.31
2019-02-07T05:30:10.356Z,1009.29
2019-02-07T05:31:10.358Z,1009.26
2019-02-07T05:32:10.377Z,1009.28
2019-02-07T05:33:10.325Z,1009.26
2019-02-07T05:34:10.315Z,1009.22
2019-02-07T05:35:10.301Z,1009.16
2019-02-07T05:36:10.295Z,1009.18
2019-02-07T05:37:10.281Z,1009.19
2019-02-07T05:38:10.281Z,1009.17
2019-02-07T05:39:10.266Z,1009.16
2019-02-07T05:40:10.254Z,1009.16
2019-02-07T05:41:10.246Z,1009.20
2019-02-07T05:42:10.270Z,1009.21
2019-02-07T05:43:10.217Z,1009.19
2019-02-07T05:44:10.211Z,1009.20
2019-02-07T05:45:10.202Z,1009.25
2019-02-07T05:46:10.193Z,1009.21
2019-02-07T05:47:10.182Z,1009.21
2019-02-07T05:48:10.179Z,1009.23
2019-02-07T05:49:10.155Z,1009.21
2019-02-07T05:50:10.153Z,1009.20
2019-02-07T05:51:10.134Z,1009.20
2019-02-07T05:52:10.129Z,1009.12
2019-02-07T05:53:10.128Z,1009.15
2019-02-07T05:54:10.104Z,1009.16
2019-02-07T05:55:10.099Z,1009.17
2019-02-07T05:56:10.091Z,1009.18
2019-02-07T05:57:10.078Z,1009.17
2019-02-07T05:58:17.130Z,1009.22
2019-02-07T05:59:10.052Z,1009.18
2019-02-07T06:00:10.049Z,1009.20
2019-02-07T06:01:10.041Z,1009.15
2019-02-07T06:02:10.021Z,1009.15
2019-02-07T06:03:10.012Z,1009.11
2019-02-07T06:04:10.009Z,1009.12
2019-02-07T06:05:09.994Z,1009.11
2019-02-07T06:06:09.986Z,1009.08
2019-02-07T06:07:09.977Z,1009.07
2019-02-07T06:08:09.960Z,1009.07
2019-02-07T06:09:09.966Z,1009.11
2019-02-07T06:10:09.951Z,1009.13
2019-02-07T06:11:09.928Z,1009.13
2019-02-07T06:12:09.924Z,1009.05
2019-02-07T06:13:09.918Z,1009.04
2019-02-07T06:14:09.912Z,1009.02
2019-02-07T06:15:09.894Z,1008.98
2019-02-07T06:16:09.877Z,1008.95
2019-02-07T06:17:09.872Z,1009.00
2019-02-07T06:18:09.862Z,1008.97
2019-02-07T06:19:09.844Z,1008.99
2019-02-07T06:20:09.874Z,1008.99
2019-02-07T06:21:09.832Z,1009.01
2019-02-07T06:22:09.830Z,1009.01
2019-02-07T06:23:09.805Z,1009.04
2019-02-07T06:24:09.801Z,1009.00
2019-02-07T06:25:09.786Z,1008.99
2019-02-07T06:26:09.785Z,1009.00
2019-02-07T06:27:09.765Z,1008.97
2019-02-07T06:28:09.760Z,1008.98
2019-02-07T06:29:09.745Z,1008.99
2019-02-07T06:30:09.736Z,1008.96
2019-02-07T06:31:09.734Z,1008.96
2019-02-07T06:32:09.728Z,1008.91
2019-02-07T06:33:09.698Z,1008.92
2019-02-07T06:34:09.687Z,1008.91
2019-02-07T06:35:09.677Z,1008.86
2019-02-07T06:36:09.696Z,1008.88
2019-02-07T06:37:09.657Z,1008.84
2019-02-07T06:38:09.650Z,1008.84
2019-02-07T06:39:09.638Z,1008.80
2019-02-07T06:40:09.626Z,1008.74
2019-02-07T06:41:09.619Z,1008.73
2019-02-07T06:42:09.611Z,1008.69
2019-02-07T06:43:09.601Z,1008.68
2019-02-07T06:44:09.623Z,1008.67
2019-02-07T06:45:09.579Z,1008.66
2019-02-07T06:46:09.599Z,1008.67
2019-02-07T06:47:13.443Z,1008.65
2019-02-07T06:48:09.552Z,1008.69
2019-02-07T06:49:09.531Z,1008.64
2019-02-07T06:50:09.526Z,1008.67
2019-02-07T06:51:09.512Z,1008.61
2019-02-07T06:52:09.502Z,1008.64
2019-02-07T06:53:11.306Z,1008.60
2019-02-07T06:54:09.485Z,1008.60
2019-02-07T06:55:09.471Z,1008.56
2019-02-07T06:56:09.459Z,1008.62
2019-02-07T06:57:09.451Z,1008.59
2019-02-07T06:58:09.469Z,1008.54
2019-02-07T06:59:09.428Z,1008.52
2019-02-07T07:00:09.425Z,1008.51
2019-02-07T07:01:09.412Z,1008.50
2019-02-07T07:02:09.399Z,1008.51
2019-02-07T07:03:09.387Z,1008.50
2019-02-07T07:04:09.408Z,1008.42
2019-02-07T07:05:09.366Z,1008.49
2019-02-07T07:06:09.361Z,1008.43
2019-02-07T07:07:09.351Z,1008.48
2019-02-07T07:08:09.340Z,1008.48
2019-02-07T07:09:09.325Z,1008.42
2019-02-07T07:10:09.327Z,1008.44
2019-02-07T07:11:09.312Z,1008.44
2019-02-07T07:12:09.307Z,1008.47
2019-02-07T07:13:09.283Z,1008.42
2019-02-07T07:14:09.287Z,1008.42
2019-02-07T07:15:09.278Z,1008.40
2019-02-07T07:16:09.255Z,1008.42
2019-02-07T07:17:09.242Z,1008.47
2019-02-07T07:18:09.248Z,1008.42
2019-02-07T07:19:09.224Z,1008.46
2019-02-07T07:20:09.221Z,1008.44
2019-02-07T07:21:09.211Z,1008.45
2019-02-07T07:22:09.198Z,1008.40
2019-02-07T07:23:09.180Z,1008.48
2019-02-07T07:24:09.199Z,1008.45
2019-02-07T07:25:09.163Z,1008.41
2019-02-07T07:26:09.590Z,1008.43
2019-02-07T07:27:09.140Z,1008.46
2019-02-07T07:28:09.128Z,1008.45
2019-02-07T07:29:09.115Z,1008.45
2019-02-07T07:30:09.114Z,1008.47
2019-02-07T07:31:09.103Z,1008.44
2019-02-07T07:32:09.092Z,1008.43
2019-02-07T07:33:09.075Z,1008.37
2019-02-07T07:34:09.069Z,1008.36
2019-02-07T07:35:09.052Z,1008.36
2019-02-07T07:36:09.056Z,1008.36
2019-02-07T07:37:09.045Z,1008.40
2019-02-07T07:38:09.020Z,1008.40
2019-02-07T07:39:09.014Z,1008.45
2019-02-07T07:40:09.008Z,1008.48
2019-02-07T07:41:08.991Z,1008.45
2019-02-07T07:42:08.991Z,1008.44
2019-02-07T07:43:08.971Z,1008.39
2019-02-07T07:44:08.957Z,1008.44
2019-02-07T07:45:08.949Z,1008.38
2019-02-07T07:46:08.942Z,1008.40
2019-02-07T07:47:08.937Z,1008.38
2019-02-07T07:48:08.953Z,1008.40
2019-02-07T07:49:10.556Z,1008.39
2019-02-07T07:50:08.907Z,1008.37
2019-02-07T07:51:08.889Z,1008.36
2019-02-07T07:52:08.880Z,1008.37
2019-02-07T07:53:08.869Z,1008.37
2019-02-07T07:54:08.863Z,1008.32
2019-02-07T07:55:08.850Z,1008.29
2019-02-07T07:56:08.838Z,1008.30
2019-02-07T07:57:08.823Z,1008.26
2019-02-07T07:58:08.826Z,1008.23
2019-02-07T07:59:08.813Z,1008.24
2019-02-07T08:00:08.791Z,1008.24
2019-02-07T08:01:08.791Z,1008.17
2019-02-07T08:02:08.775Z,1008.10
2019-02-07T08:03:08.806Z,1008.10
2019-02-07T08:04:08.749Z,1008.05
2019-02-07T08:05:08.744Z,1008.08
2019-02-07T08:06:08.728Z,1008.02
2019-02-07T08:07:08.722Z,1008.01
2019-02-07T08:08:08.712Z,1008.01
2019-02-07T08:09:08.736Z,1008.06
2019-02-07T08:10:08.697Z,1008.11
2019-02-07T08:11:08.691Z,1008.10
2019-02-07T08:12:08.673Z,1008.11
2019-02-07T08:13:08.656Z,1008.12
2019-02-07T08:14:08.652Z,1008.10
2019-02-07T08:15:08.654Z,1008.06
2019-02-07T08:16:08.630Z,1008.05
2019-02-07T08:17:08.622Z,1008.06
2019-02-07T08:18:08.611Z,1008.04
2019-02-07T08:19:08.599Z,1008.01
2019-02-07T08:20:08.583Z,1008.00
2019-02-07T08:21:08.588Z,1007.96
2019-02-07T08:22:08.568Z,1007.93
2019-02-07T08:23:08.564Z,1007.90
2019-02-07T08:24:08.602Z,1007.80
2019-02-07T08:25:08.533Z,1007.84
2019-02-07T08:26:08.529Z,1007.78
2019-02-07T08:27:08.518Z,1007.79
2019-02-07T08:28:08.505Z,1007.79
2019-02-07T08:29:08.601Z,1007.74
2019-02-07T08:30:08.489Z,1007.71
2019-02-07T08:31:08.470Z,1007.70
2019-02-07T08:32:08.465Z,1007.71
2019-02-07T08:33:08.456Z,1007.62
2019-02-07T08:34:08.447Z,1007.59
2019-02-07T08:35:08.449Z,1007.62
2019-02-07T08:36:08.440Z,1007.59
2019-02-07T08:37:08.414Z,1007.54
2019-02-07T08:38:08.397Z,1007.49
2019-02-07T08:39:08.396Z,1007.50
2019-02-07T08:40:08.496Z,1007.47
2019-02-07T08:41:08.409Z,1007.47
2019-02-07T08:42:08.367Z,1007.43
2019-02-07T08:43:08.350Z,1007.42
2019-02-07T08:44:13.357Z,1007.48
2019-02-07T08:45:09.373Z,1007.42
2019-02-07T08:46:08.386Z,1007.37
2019-02-07T08:47:08.382Z,1007.46
2019-02-07T08:48:08.299Z,1007.37
2019-02-07T08:49:08.283Z,1007.32
2019-02-07T08:50:08.296Z,1007.31
2019-02-07T08:51:08.263Z,1007.33
2019-02-07T08:52:08.257Z,1007.27
2019-02-07T08:53:08.260Z,1007.26
2019-02-07T08:54:08.238Z,1007.21
2019-02-07T08:55:08.224Z,1007.23
2019-02-07T08:56:08.224Z,1007.19
2019-02-07T08:57:08.205Z,1007.20
2019-02-07T08:58:08.201Z,1007.24
2019-02-07T08:59:08.185Z,1007.26
2019-02-07T09:00:08.173Z,1007.27
2019-02-07T09:01:08.160Z,1007.27
2019-02-07T09:02:08.170Z,1007.23
2019-02-07T09:03:08.155Z,1007.22
2019-02-07T09:04:08.134Z,1007.19
2019-02-07T09:05:08.119Z,1007.19
2019-02-07T09:06:08.108Z,1007.06
2019-02-07T09:07:08.098Z,1007.09
2019-02-07T09:08:08.092Z,1007.02
2019-02-07T09:09:08.188Z,1007.01
2019-02-07T09:10:08.097Z,1007.05
2019-02-07T09:11:08.064Z,1007.06
2019-02-07T09:12:08.053Z,1006.98
2019-02-07T09:13:08.040Z,1007.00
2019-02-07T09:14:08.030Z,1007.00
2019-02-07T09:15:08.017Z,1006.98
2019-02-07T09:16:08.028Z,1006.99
2019-02-07T09:17:08.001Z,1006.97
2019-02-07T09:18:11.361Z,1006.94
2019-02-07T09:19:07.973Z,1006.90
2019-02-07T09:20:07.971Z,1006.90
2019-02-07T09:21:07.952Z,1006.92
2019-02-07T09:22:07.946Z,1006.94
2019-02-07T09:23:07.944Z,1006.91
2019-02-07T09:24:07.922Z,1006.92
2019-02-07T09:25:07.936Z,1006.85
2019-02-07T09:26:07.908Z,1006.90
2019-02-07T09:27:07.890Z,1006.92
2019-02-07T09:28:07.885Z,1006.88
2019-02-07T09:29:07.872Z,1006.92
2019-02-07T09:30:07.866Z,1006.87
2019-02-07T09:31:07.867Z,1006.83
2019-02-07T09:32:07.843Z,1006.90
2019-02-07T09:33:07.836Z,1006.81
2019-02-07T09:34:07.820Z,1006.87
2019-02-07T09:35:07.823Z,1006.87
2019-02-07T09:36:09.986Z,1006.89
2019-02-07T09:37:07.794Z,1006.88
2019-02-07T09:38:07.775Z,1006.89
2019-02-07T09:39:07.767Z,1006.90
2019-02-07T09:40:07.763Z,1006.89
2019-02-07T09:41:07.776Z,1006.88
2019-02-07T09:42:07.745Z,1006.88
2019-02-07T09:43:07.728Z,1006.81
2019-02-07T09:44:07.714Z,1006.79
2019-02-07T09:45:07.703Z,1006.73
2019-02-07T09:46:07.697Z,1006.68
2019-02-07T09:47:07.692Z,1006.69
2019-02-07T09:48:07.672Z,1006.66
2019-02-07T09:49:09.087Z,1006.66
2019-02-07T09:50:07.656Z,1006.73
2019-02-07T09:51:07.640Z,1006.68
2019-02-07T09:52:07.642Z,1006.67
2019-02-07T09:53:07.621Z,1006.71
2019-02-07T09:54:07.607Z,1006.66
2019-02-07T09:55:07.615Z,1006.71
2019-02-07T09:56:07.591Z,1006.70
2019-02-07T09:57:07.580Z,1006.64
2019-02-07T09:58:07.577Z,1006.69
2019-02-07T09:59:07.556Z,1006.71
2019-02-07T10:00:07.544Z,1006.71
2019-02-07T10:01:07.544Z,1006.71
2019-02-07T10:02:07.524Z,1006.71
2019-02-07T10:03:07.522Z,1006.67
2019-02-07T10:04:07.503Z,1006.70
2019-02-07T10:05:07.497Z,1006.73
2019-02-07T10:06:07.490Z,1006.75
2019-02-07T10:07:07.472Z,1006.71
2019-02-07T10:08:07.463Z,1006.76
2019-02-07T10:09:07.451Z,1006.75
2019-02-07T10:10:07.458Z,1006.79
2019-02-07T10:11:07.434Z,1006.75
2019-02-07T10:12:07.433Z,1006.71
2019-02-07T10:13:07.418Z,1006.68
2019-02-07T10:14:07.402Z,1006.62
2019-02-07T10:15:07.390Z,1006.60
2019-02-07T10:16:07.393Z,1006.60
2019-02-07T10:17:07.378Z,1006.62
2019-02-07T10:18:07.356Z,1006.59
2019-02-07T10:19:07.352Z,1006.55
2019-02-07T10:20:07.334Z,1006.50
2019-02-07T10:21:07.327Z,1006.52
2019-02-07T10:22:07.396Z,1006.52
2019-02-07T10:23:07.307Z,1006.48
2019-02-07T10:24:07.304Z,1006.53
2019-02-07T10:25:07.280Z,1006.51
2019-02-07T10:26:07.278Z,1006.54
2019-02-07T10:27:07.265Z,1006.54
2019-02-07T10:28:07.263Z,1006.43
2019-02-07T10:29:07.242Z,1006.44
2019-02-07T10:30:07.233Z,1006.41
2019-02-07T10:31:07.223Z,1006.33
2019-02-07T10:32:07.213Z,1006.31
2019-02-07T10:33:07.262Z,1006.36
2019-02-07T10:34:07.195Z,1006.39
2019-02-07T10:35:07.179Z,1006.35
2019-02-07T10:36:07.172Z,1006.31
2019-02-07T10:37:07.163Z,1006.26
2019-02-07T10:38:07.267Z,1006.27
2019-02-07T10:39:07.143Z,1006.20
2019-02-07T10:40:07.132Z,1006.09
2019-02-07T10:41:07.120Z,1006.07
2019-02-07T10:42:07.112Z,1006.00
2019-02-07T10:43:07.099Z,1006.00
2019-02-07T10:44:07.093Z,1005.98
2019-02-07T10:45:07.076Z,1006.00
2019-02-07T10:46:07.080Z,1006.04
2019-02-07T10:47:07.051Z,1005.92
2019-02-07T10:48:07.041Z,1005.85
2019-02-07T10:49:07.037Z,1005.87
2019-02-07T10:50:07.018Z,1005.89
2019-02-07T10:51:07.042Z,1005.89
2019-02-07T10:52:06.997Z,1005.88
2019-02-07T10:53:06.988Z,1005.92
2019-02-07T10:54:06.977Z,1005.90
2019-02-07T10:55:06.977Z,1005.86
2019-02-07T10:56:06.957Z,1005.86
2019-02-07T10:57:06.973Z,1005.85
2019-02-07T10:58:06.938Z,1005.84
2019-02-07T10:59:06.923Z,1005.82
2019-02-07T11:00:06.914Z,1005.86
2019-02-07T11:01:06.909Z,1005.81
2019-02-07T11:02:06.891Z,1005.82
2019-02-07T11:03:06.891Z,1005.77
2019-02-07T11:04:06.871Z,1005.76
2019-02-07T11:05:06.864Z,1005.72
2019-02-07T11:06:06.945Z,1005.71
2019-02-07T11:07:06.843Z,1005.67
2019-02-07T11:08:06.827Z,1005.70
2019-02-07T11:09:06.931Z,1005.65
2019-02-07T11:10:06.809Z,1005.54
2019-02-07T11:11:06.800Z,1005.55
2019-02-07T11:12:06.785Z,1005.57
2019-02-07T11:13:06.779Z,1005.62
2019-02-07T11:14:06.765Z,1005.56
2019-02-07T11:15:06.762Z,1005.57
2019-02-07T11:16:06.747Z,1005.54
2019-02-07T11:17:06.733Z,1005.50
2019-02-07T11:18:06.726Z,1005.53
2019-02-07T11:19:06.723Z,1005.50
2019-02-07T11:20:06.709Z,1005.48
2019-02-07T11:21:06.689Z,1005.51
2019-02-07T11:22:07.807Z,1005.49
2019-02-07T11:23:06.673Z,1005.52
2019-02-07T11:24:06.664Z,1005.47
2019-02-07T11:25:06.663Z,1005.45
2019-02-07T11:26:06.657Z,1005.42
2019-02-07T11:27:06.627Z,1005.34
2019-02-07T11:28:10.792Z,1005.34
2019-02-07T11:29:06.657Z,1005.34
2019-02-07T11:30:06.595Z,1005.38
2019-02-07T11:31:06.582Z,1005.36
2019-02-07T11:32:06.575Z,1005.28
2019-02-07T11:33:06.657Z,1005.30
2019-02-07T11:34:06.552Z,1005.32
2019-02-07T11:35:06.554Z,1005.31
2019-02-07T11:36:06.535Z,1005.27
2019-02-07T11:37:06.527Z,1005.21
2019-02-07T11:38:06.510Z,1005.30
2019-02-07T11:39:06.503Z,1005.22
2019-02-07T11:40:06.490Z,1005.25
2019-02-07T11:41:06.485Z,1005.13
2019-02-07T11:42:06.478Z,1005.08
2019-02-07T11:43:06.463Z,1004.98
2019-02-07T11:44:06.451Z,1004.96
2019-02-07T11:45:06.475Z,1004.96
2019-02-07T11:46:06.429Z,1004.99
2019-02-07T11:47:08.048Z,1005.00
2019-02-07T11:48:06.403Z,1005.06
2019-02-07T11:49:07.216Z,1005.10
2019-02-07T11:50:06.387Z,1005.03
2019-02-07T11:51:06.381Z,1005.00
2019-02-07T11:52:06.374Z,1005.01
2019-02-07T11:53:06.352Z,1004.95
2019-02-07T11:54:06.343Z,1005.04
2019-02-07T11:55:06.345Z,1004.99
2019-02-07T11:56:06.318Z,1005.04
2019-02-07T11:57:06.321Z,1005.00
2019-02-07T11:58:06.295Z,1004.98
2019-02-07T11:59:06.302Z,1004.96
2019-02-07T12:00:06.274Z,1004.93
2019-02-07T12:01:06.278Z,1004.85
2019-02-07T12:02:09.196Z,1004.83
2019-02-07T12:03:06.248Z,1004.81
2019-02-07T12:04:06.242Z,1004.86
2019-02-07T12:05:06.233Z,1004.82